Kvitbjoern — LM9158 — position and weather

sailwx.info

Track history (hours):
 
Tides and Currents Weather Stations Pressure Air Temp Water Temp Dewpoint Dewpoint Depression Visibility Wind Speed Wind Dir Waves Ship Positions

Kvitbjoern

Last reported at 2015-Jul-26 20:32 UTC. Time now 2015-Jul-31 09:26 UTC.
Position N 66°22' E 012°21'.

Length 10 m.

Type: Fishing. MMSI: 257454420.

Date/timePositionNaut miles runAvg speedWind from/ knotsBaromVisibWave heightAir tempDewpointWater temp
2015-Jul-26 20:32N 66°22' E 012°21'4 1.0
2015-Jul-26 16:33N 66°23' E 012°12'4 0.1
2015-Jul-24 18:24N 66°22' E 012°21'3 3.7
2015-Jul-24 17:31N 66°19' E 012°25'1 1.0
2015-Jul-24 16:25N 66°20' E 012°22'0 0.5
2015-Jul-24 15:31N 66°19' E 012°22'3 1.5
2015-Jul-24 13:33N 66°22' E 012°22'  
2015-Jul-21 16:11N 66°22' E 012°21'0 0.0
2015-Jul-21 15:29N 66°22' E 012°21'0 0.5
2015-Jul-21 14:33N 66°22' E 012°22'3 3.2
2015-Jul-21 13:31N 66°19' E 012°25'2 1.4
2015-Jul-21 12:21N 66°20' E 012°21'4 1.3
2015-Jul-21 09:25N 66°22' E 012°13'2 2.6
2015-Jul-21 08:33N 66°23' E 012°18'0 0.5
2015-Jul-21 07:33N 66°23' E 012°17'2 1.9
2015-Jul-21 06:28N 66°24' E 012°22'1 1.1
2015-Jul-21 05:28N 66°25' E 012°23'2 2.3
2015-Jul-21 04:32N 66°23' E 012°23'  
2015-Jul-18 14:26N 66°23' E 012°18'2 1.8
2015-Jul-18 13:28N 66°24' E 012°22'1 1.1
2015-Jul-18 12:31N 66°25' E 012°23'2 1.8
2015-Jul-18 11:32N 66°23' E 012°23'  
Track history (hours):
 
Tides and Currents Weather Stations Pressure Air Temp Water Temp Dewpoint Dewpoint Depression Visibility Wind Speed Wind Dir Waves Ship Positions

Kvitbjoern

Last reported at 2015-Jul-26 20:32 UTC. Time now 2015-Jul-31 09:26 UTC.
Position N 66°22' E 012°21'.

Length 10 m.

Type: Fishing. MMSI: 257454420.

Date/timePositionNaut miles runAvg speedWind from/ knotsBaromVisibWave heightAir tempDewpointWater temp
2015-Jul-26 20:32N 66°22' E 012°21'4 1.0
2015-Jul-26 16:33N 66°23' E 012°12'4 0.1
2015-Jul-24 18:24N 66°22' E 012°21'3 3.7
2015-Jul-24 17:31N 66°19' E 012°25'1 1.0
2015-Jul-24 16:25N 66°20' E 012°22'0 0.5
2015-Jul-24 15:31N 66°19' E 012°22'3 1.5
2015-Jul-24 13:33N 66°22' E 012°22'  
2015-Jul-21 16:11N 66°22' E 012°21'0 0.0
2015-Jul-21 15:29N 66°22' E 012°21'0 0.5
2015-Jul-21 14:33N 66°22' E 012°22'3 3.2
2015-Jul-21 13:31N 66°19' E 012°25'2 1.4
2015-Jul-21 12:21N 66°20' E 012°21'4 1.3
2015-Jul-21 09:25N 66°22' E 012°13'2 2.6
2015-Jul-21 08:33N 66°23' E 012°18'0 0.5
2015-Jul-21 07:33N 66°23' E 012°17'2 1.9
2015-Jul-21 06:28N 66°24' E 012°22'1 1.1
2015-Jul-21 05:28N 66°25' E 012°23'2 2.3
2015-Jul-21 04:32N 66°23' E 012°23'  
2015-Jul-18 14:26N 66°23' E 012°18'2 1.8
2015-Jul-18 13:28N 66°24' E 012°22'1 1.1
2015-Jul-18 12:31N 66°25' E 012°23'2 1.8
2015-Jul-18 11:32N 66°23' E 012°23'  

Dump ship's entire track history